Etchingham, United Kingdom
Current Conditions -  °F | °C
As of 4:20 PM on Thursday 18 Dec 2014 (Local Time) from EGMD Reporting Station
Broken Clouds Broken Clouds  
Wind Chill: 13°   Ceiling: 900
Heat Index: 13°   Visibility: 5mi
Dew Point: 12°   Wind: 29mph
Humidity: 94%   Direction: 240°WSW
Pressure: 29.91"   Gusts: NA
Location:  51.01°N, 0.44°E
Report Text: EGMD 181620Z 24025KT 8000 BKN009 13/12 Q1013
Loading
Personal Weather Stations






























Interactive Weather Map New forecast layout! Learn more

10-Day Weather Forecast

Advertisements
Track Severe Weather on mobile